createdAt,value
2022-08-20T00:02:09.698Z,24.00
2022-08-20T00:04:36.796Z,24.00
2022-08-20T00:07:06.528Z,24.00
2022-08-20T00:09:36.605Z,24.00
2022-08-20T00:12:05.840Z,24.00
2022-08-20T00:14:34.010Z,24.00
2022-08-20T00:17:01.827Z,24.00
2022-08-20T00:19:28.928Z,24.00
2022-08-20T00:21:58.164Z,23.90
2022-08-20T00:24:25.700Z,23.80
2022-08-20T00:26:52.984Z,23.80
2022-08-20T00:29:20.488Z,23.80
2022-08-20T00:31:49.949Z,23.80
2022-08-20T00:34:16.754Z,23.80
2022-08-20T00:36:43.592Z,23.80
2022-08-20T00:39:10.430Z,23.80
2022-08-20T00:41:37.488Z,23.80
2022-08-20T00:44:15.665Z,23.80
2022-08-20T00:46:44.500Z,23.80
2022-08-20T00:49:19.046Z,23.80
2022-08-20T00:51:54.564Z,23.90
2022-08-20T00:54:41.706Z,23.90
2022-08-20T00:57:21.780Z,23.90
2022-08-20T00:59:49.996Z,23.90
2022-08-20T01:02:17.787Z,23.90
2022-08-20T01:04:54.775Z,23.90
2022-08-20T01:07:29.119Z,23.80
2022-08-20T01:09:58.194Z,23.90
2022-08-20T01:12:28.179Z,23.90
2022-08-20T01:14:56.012Z,23.90
2022-08-20T01:17:25.685Z,23.90
2022-08-20T01:20:12.741Z,23.90
2022-08-20T01:23:09.063Z,23.80
2022-08-20T01:25:41.483Z,23.80
2022-08-20T01:28:09.369Z,23.80
2022-08-20T01:30:37.064Z,23.70
2022-08-20T01:33:05.099Z,23.70
2022-08-20T01:35:37.725Z,23.70
2022-08-20T01:38:05.659Z,23.70
2022-08-20T01:40:55.816Z,23.60
2022-08-20T01:43:24.074Z,23.60
2022-08-20T01:45:52.891Z,23.60
2022-08-20T01:48:20.954Z,23.60
2022-08-20T01:50:55.730Z,23.60
2022-08-20T01:53:33.455Z,23.60
2022-08-20T01:56:07.229Z,23.60
2022-08-20T01:58:36.925Z,23.60
2022-08-20T02:01:04.503Z,23.60
2022-08-20T02:03:36.549Z,23.60
2022-08-20T02:06:05.378Z,23.60
2022-08-20T02:08:33.501Z,23.80
2022-08-20T02:11:00.183Z,23.60
2022-08-20T02:13:27.229Z,23.60
2022-08-20T02:15:54.360Z,23.60
2022-08-20T02:18:22.497Z,23.60
2022-08-20T02:20:51.510Z,23.60
2022-08-20T02:23:18.931Z,23.60
2022-08-20T02:25:47.518Z,23.50
2022-08-20T02:28:19.669Z,23.50
2022-08-20T02:30:51.308Z,23.50
2022-08-20T02:33:24.130Z,23.50
2022-08-20T02:35:52.634Z,23.40
2022-08-20T02:38:19.545Z,23.50
2022-08-20T02:40:46.624Z,23.50
2022-08-20T02:43:14.434Z,23.50
2022-08-20T02:45:43.890Z,23.50
2022-08-20T02:48:20.817Z,23.50
2022-08-20T02:50:51.300Z,23.40
2022-08-20T02:53:18.379Z,23.40
2022-08-20T02:55:45.125Z,23.40
2022-08-20T02:58:12.544Z,23.40
2022-08-20T03:00:39.910Z,23.30
2022-08-20T03:03:08.960Z,23.40
2022-08-20T03:05:39.296Z,23.40
2022-08-20T03:08:07.390Z,23.40
2022-08-20T03:10:38.682Z,23.40
2022-08-20T03:13:06.655Z,23.30
2022-08-20T03:15:34.521Z,23.30
2022-08-20T03:18:01.374Z,23.30
2022-08-20T03:20:28.571Z,23.30
2022-08-20T03:22:55.381Z,23.30
2022-08-20T03:25:23.945Z,23.40
2022-08-20T03:27:54.305Z,23.40
2022-08-20T03:30:24.340Z,23.30
2022-08-20T03:32:51.390Z,23.30
2022-08-20T03:35:20.210Z,23.10
2022-08-20T03:37:48.107Z,23.10
2022-08-20T03:40:24.273Z,23.00
2022-08-20T03:42:55.508Z,23.00
2022-08-20T03:45:23.208Z,23.00
2022-08-20T03:47:51.790Z,23.00
2022-08-20T03:50:23.508Z,23.00
2022-08-20T03:52:55.160Z,23.00
2022-08-20T03:55:23.857Z,23.00
2022-08-20T03:57:54.685Z,23.00
2022-08-20T04:00:32.619Z,23.00
2022-08-20T04:03:00.817Z,23.00
2022-08-20T04:05:30.062Z,23.00
2022-08-20T04:08:03.023Z,23.00
2022-08-20T04:10:31.646Z,23.00
2022-08-20T04:12:58.352Z,23.00
2022-08-20T04:15:26.834Z,23.00
2022-08-20T04:17:54.164Z,23.00
2022-08-20T04:20:26.094Z,23.00
2022-08-20T04:22:59.069Z,23.00
2022-08-20T04:25:29.813Z,23.00
2022-08-20T04:28:01.879Z,23.00
2022-08-20T04:30:29.664Z,23.00
2022-08-20T04:32:56.783Z,23.00
2022-08-20T04:35:26.827Z,23.00
2022-08-20T04:38:02.641Z,23.10
2022-08-20T04:40:48.162Z,23.10
2022-08-20T04:43:15.085Z,23.10
2022-08-20T04:45:42.567Z,23.20
2022-08-20T04:48:14.694Z,23.20
2022-08-20T04:50:44.866Z,23.30
2022-08-20T04:53:14.532Z,23.30
2022-08-20T04:55:42.876Z,23.40
2022-08-20T04:58:37.996Z,23.40
2022-08-20T05:01:10.336Z,23.40
2022-08-20T05:03:39.340Z,23.50
2022-08-20T05:06:08.176Z,23.50
2022-08-20T05:08:36.750Z,23.50
2022-08-20T05:11:32.825Z,23.50
2022-08-20T05:13:52.781Z,23.50
2022-08-20T05:16:20.883Z,23.60
2022-08-20T05:18:52.200Z,23.60
2022-08-20T05:21:21.025Z,23.70
2022-08-20T05:23:49.052Z,23.70
2022-08-20T05:26:16.199Z,23.70
2022-08-20T05:28:57.449Z,23.80
2022-08-20T05:31:31.271Z,23.70
2022-08-20T05:34:00.491Z,23.70
2022-08-20T05:36:27.213Z,23.60
2022-08-20T05:38:54.626Z,23.50
2022-08-20T05:41:29.729Z,23.50
2022-08-20T05:44:01.285Z,23.40
2022-08-20T05:46:32.118Z,23.40
2022-08-20T05:49:01.455Z,23.30
2022-08-20T05:51:29.353Z,23.30
2022-08-20T05:53:57.968Z,23.20
2022-08-20T05:56:26.721Z,23.20
2022-08-20T05:58:54.048Z,23.20
2022-08-20T06:01:20.863Z,23.20
2022-08-20T06:04:06.325Z,23.20
2022-08-20T06:06:46.149Z,23.20
2022-08-20T06:09:15.467Z,23.10
2022-08-20T06:11:42.310Z,23.00
2022-08-20T06:14:09.045Z,23.00
2022-08-20T06:16:37.129Z,23.00
2022-08-20T06:19:04.921Z,22.90
2022-08-20T06:21:32.445Z,22.90
2022-08-20T06:23:59.759Z,22.90
2022-08-20T06:26:29.658Z,22.90
2022-08-20T06:28:58.237Z,22.90
2022-08-20T06:31:24.990Z,23.00
2022-08-20T06:33:51.713Z,23.10
2022-08-20T06:36:19.146Z,23.20
2022-08-20T06:38:46.669Z,23.40
2022-08-20T06:41:14.170Z,23.40
2022-08-20T06:43:41.096Z,23.50
2022-08-20T06:46:08.410Z,23.60
2022-08-20T06:48:35.228Z,23.70
2022-08-20T06:51:02.131Z,23.70
2022-08-20T06:53:29.334Z,23.80
2022-08-20T06:55:58.910Z,23.70
2022-08-20T06:58:36.805Z,23.70
2022-08-20T07:01:09.803Z,23.50
2022-08-20T07:03:42.257Z,23.40
2022-08-20T07:06:21.974Z,23.40
2022-08-20T07:08:48.725Z,23.30
2022-08-20T07:11:15.420Z,23.30
2022-08-20T07:13:42.137Z,23.30
2022-08-20T07:16:09.281Z,23.30
2022-08-20T07:18:36.381Z,23.30
2022-08-20T07:21:03.325Z,23.20
2022-08-20T07:23:31.660Z,23.20
2022-08-20T07:25:58.795Z,23.20
2022-08-20T07:28:28.808Z,23.20
2022-08-20T07:31:15.892Z,23.20
2022-08-20T07:33:44.452Z,23.10
2022-08-20T07:36:12.045Z,23.20
2022-08-20T07:38:38.833Z,23.30
2022-08-20T07:41:13.479Z,23.30
2022-08-20T07:43:41.295Z,23.50
2022-08-20T07:46:09.301Z,23.60
2022-08-20T07:48:41.854Z,23.80
2022-08-20T07:51:10.772Z,24.10
2022-08-20T07:53:39.277Z,24.60
2022-08-20T07:56:09.044Z,25.00
2022-08-20T07:58:38.466Z,25.30
2022-08-20T08:01:07.103Z,25.60
2022-08-20T08:03:37.671Z,25.80
2022-08-20T08:06:18.257Z,25.90
2022-08-20T08:09:08.231Z,26.00
2022-08-20T08:11:38.202Z,26.20
2022-08-20T08:14:08.067Z,26.30
2022-08-20T08:16:36.056Z,26.40
2022-08-20T08:19:06.985Z,26.50
2022-08-20T08:21:33.705Z,26.60
2022-08-20T08:24:00.495Z,26.70
2022-08-20T08:26:28.858Z,26.80
2022-08-20T08:28:56.076Z,26.90
2022-08-20T08:31:22.792Z,27.00
2022-08-20T08:33:49.528Z,27.00
2022-08-20T08:36:16.864Z,27.00
2022-08-20T08:38:45.693Z,26.90
2022-08-20T08:41:35.561Z,26.70
2022-08-20T08:44:05.997Z,26.60
2022-08-20T08:46:42.472Z,26.40
2022-08-20T08:49:16.350Z,26.00
2022-08-20T08:51:50.863Z,25.90
2022-08-20T08:54:22.151Z,25.80
2022-08-20T08:56:49.773Z,25.90
2022-08-20T08:59:18.571Z,25.90
2022-08-20T09:01:54.212Z,25.80
2022-08-20T09:04:30.328Z,25.80
2022-08-20T09:06:58.682Z,25.80
2022-08-20T09:09:32.879Z,25.90
2022-08-20T09:12:07.292Z,26.00
2022-08-20T09:14:34.252Z,26.20
2022-08-20T09:17:00.998Z,26.20
2022-08-20T09:19:27.769Z,26.30
2022-08-20T09:21:54.665Z,26.40
2022-08-20T09:24:21.446Z,26.60
2022-08-20T09:26:48.166Z,26.80
2022-08-20T09:29:15.102Z,26.90
2022-08-20T09:31:41.890Z,27.00
2022-08-20T09:34:08.607Z,27.20
2022-08-20T09:36:35.349Z,27.30
2022-08-20T09:39:02.932Z,27.30
2022-08-20T09:41:30.905Z,27.40
2022-08-20T09:44:00.515Z,27.40
2022-08-20T09:46:27.733Z,27.20
2022-08-20T09:48:55.202Z,27.20
2022-08-20T09:51:22.807Z,27.30
2022-08-20T09:53:50.074Z,27.60
2022-08-20T09:56:17.178Z,27.90
2022-08-20T09:58:50.796Z,28.20
2022-08-20T10:01:19.449Z,28.50
2022-08-20T10:03:49.998Z,28.80
2022-08-20T10:06:20.821Z,29.10
2022-08-20T10:08:49.421Z,29.20
2022-08-20T10:11:18.030Z,29.30
2022-08-20T10:13:45.288Z,29.20
2022-08-20T10:16:12.078Z,29.40
2022-08-20T10:18:38.818Z,29.70
2022-08-20T10:21:15.110Z,30.00
2022-08-20T10:23:42.434Z,30.30
2022-08-20T10:26:10.403Z,30.40
2022-08-20T10:28:37.810Z,30.60
2022-08-20T10:31:09.266Z,30.70
2022-08-20T10:33:36.411Z,30.70
2022-08-20T10:36:12.106Z,30.60
2022-08-20T10:38:39.417Z,30.40
2022-08-20T10:41:06.247Z,30.30
2022-08-20T10:43:33.017Z,30.20
2022-08-20T10:46:00.156Z,30.20
2022-08-20T10:48:26.996Z,30.30
2022-08-20T10:50:53.791Z,30.40
2022-08-20T10:53:20.501Z,30.50
2022-08-20T10:55:47.575Z,30.60
2022-08-20T10:58:14.541Z,30.60
2022-08-20T11:00:41.698Z,30.70
2022-08-20T11:03:08.555Z,30.80
2022-08-20T11:05:35.288Z,30.90
2022-08-20T11:08:04.773Z,30.80
2022-08-20T11:10:34.774Z,30.70
2022-08-20T11:13:03.240Z,30.70
2022-08-20T11:15:30.299Z,30.60
2022-08-20T11:17:57.161Z,30.30
2022-08-20T11:20:26.202Z,30.00
2022-08-20T11:22:54.393Z,29.80
2022-08-20T11:25:21.457Z,29.30
2022-08-20T11:27:51.005Z,29.10
2022-08-20T11:30:26.012Z,29.00
2022-08-20T11:32:52.971Z,29.00
2022-08-20T11:38:08.677Z,29.00
2022-08-20T11:40:35.337Z,29.10
2022-08-20T11:43:18.280Z,29.20
2022-08-20T11:45:47.567Z,29.30
2022-08-20T11:48:14.691Z,29.40
2022-08-20T11:50:41.473Z,29.60
2022-08-20T11:53:08.306Z,30.00
2022-08-20T11:55:35.735Z,30.40
2022-08-20T11:58:02.797Z,31.00
2022-08-20T12:00:32.952Z,31.60
2022-08-20T12:03:05.386Z,32.00
2022-08-20T12:05:33.589Z,32.20
2022-08-20T12:08:01.757Z,32.20
2022-08-20T12:10:29.936Z,32.20
2022-08-20T12:12:57.065Z,32.40
2022-08-20T12:15:26.626Z,32.90
2022-08-20T12:17:53.966Z,33.20
2022-08-20T12:20:21.263Z,33.30
2022-08-20T12:22:47.941Z,33.20
2022-08-20T12:25:15.073Z,33.20
2022-08-20T12:27:42.035Z,33.20
2022-08-20T12:30:12.865Z,33.40
2022-08-20T12:32:40.037Z,33.50
2022-08-20T12:35:08.887Z,33.70
2022-08-20T12:37:35.916Z,34.00
2022-08-20T12:40:05.609Z,34.20
2022-08-20T12:42:32.471Z,34.40
2022-08-20T12:44:59.948Z,34.80
2022-08-20T12:47:29.608Z,34.90
2022-08-20T12:50:10.832Z,34.80
2022-08-20T12:52:38.159Z,34.70
2022-08-20T12:55:06.585Z,34.50
2022-08-20T12:57:34.832Z,34.20
2022-08-20T13:00:10.053Z,33.90
2022-08-20T13:02:38.651Z,33.80
2022-08-20T13:05:06.896Z,33.80
2022-08-20T13:07:34.254Z,33.90
2022-08-20T13:10:03.719Z,34.00
2022-08-20T13:12:30.923Z,34.00
2022-08-20T13:14:57.935Z,34.00
2022-08-20T13:17:38.986Z,34.20
2022-08-20T13:20:16.412Z,34.30
2022-08-20T13:22:43.633Z,34.40
2022-08-20T13:25:11.683Z,34.50
2022-08-20T13:27:40.279Z,34.50
2022-08-20T13:30:08.766Z,34.60
2022-08-20T13:32:35.492Z,34.60
2022-08-20T13:35:02.467Z,34.50
2022-08-20T13:37:30.345Z,34.50
2022-08-20T13:39:59.027Z,34.30
2022-08-20T13:42:27.337Z,34.20
2022-08-20T13:44:54.853Z,34.10
2022-08-20T13:47:24.892Z,34.10
2022-08-20T13:50:00.302Z,34.20
2022-08-20T13:52:27.807Z,34.10
2022-08-20T13:54:54.898Z,34.20
2022-08-20T13:57:23.281Z,34.20
2022-08-20T13:59:51.542Z,34.20
2022-08-20T14:02:19.228Z,34.20
2022-08-20T14:04:48.373Z,34.20
2022-08-20T14:07:19.226Z,34.20
2022-08-20T14:09:51.600Z,34.20
2022-08-20T14:12:18.275Z,34.20
2022-08-20T14:14:44.988Z,34.20
2022-08-20T14:17:19.301Z,34.20
2022-08-20T14:19:48.277Z,34.20
2022-08-20T14:22:17.734Z,34.20
2022-08-20T14:24:46.252Z,34.10
2022-08-20T14:27:14.557Z,34.00
2022-08-20T14:29:43.336Z,33.90
2022-08-20T14:32:10.423Z,33.70
2022-08-20T14:34:37.491Z,33.60
2022-08-20T14:37:13.546Z,33.50
2022-08-20T14:39:41.105Z,33.40
2022-08-20T14:42:08.021Z,33.40
2022-08-20T14:44:35.241Z,33.30
2022-08-20T14:47:11.313Z,33.30
2022-08-20T14:49:38.527Z,33.20
2022-08-20T14:52:05.691Z,33.10
2022-08-20T14:54:32.512Z,33.10
2022-08-20T14:57:02.180Z,33.00
2022-08-20T14:59:29.231Z,33.00
2022-08-20T15:01:56.033Z,32.80
2022-08-20T15:04:23.958Z,32.70
2022-08-20T15:06:54.655Z,32.50
2022-08-20T15:09:21.515Z,32.50
2022-08-20T15:11:48.521Z,32.40
2022-08-20T15:14:15.382Z,32.30
2022-08-20T15:16:45.252Z,32.20
2022-08-20T15:19:11.991Z,32.10
2022-08-20T15:21:45.056Z,32.10
2022-08-20T15:24:19.143Z,32.00
2022-08-20T15:26:46.456Z,31.90
2022-08-20T15:29:23.117Z,31.80
2022-08-20T15:31:51.011Z,31.70
2022-08-20T15:34:18.393Z,31.60
2022-08-20T15:36:45.762Z,31.50
2022-08-20T15:39:12.537Z,31.40
2022-08-20T15:41:39.282Z,31.30
2022-08-20T15:44:07.065Z,31.20
2022-08-20T15:46:36.249Z,31.10
2022-08-20T15:49:11.261Z,31.00
2022-08-20T15:51:48.991Z,31.00
2022-08-20T15:54:24.332Z,31.00
2022-08-20T15:56:59.682Z,31.00
2022-08-20T15:59:52.376Z,31.00
2022-08-20T16:02:43.849Z,30.80
2022-08-20T16:05:41.527Z,30.70
2022-08-20T16:08:13.808Z,30.60
2022-08-20T16:10:49.278Z,30.50
2022-08-20T16:13:38.672Z,30.40
2022-08-20T16:16:11.078Z,30.40
2022-08-20T16:18:39.880Z,30.30
2022-08-20T16:21:12.151Z,30.20
2022-08-20T16:23:40.767Z,30.10
2022-08-20T16:26:10.226Z,30.00
2022-08-20T16:29:04.642Z,29.90
2022-08-20T16:32:00.494Z,29.80
2022-08-20T16:34:51.372Z,29.70
2022-08-20T16:37:18.072Z,29.50
2022-08-20T16:40:31.022Z,29.40
2022-08-20T16:43:02.083Z,29.20
2022-08-20T16:45:34.910Z,29.00
2022-08-20T16:48:07.115Z,29.00
2022-08-20T16:50:49.243Z,28.80
2022-08-20T16:53:22.148Z,28.80
2022-08-20T16:55:48.927Z,28.70
2022-08-20T16:58:15.907Z,28.60
2022-08-20T17:00:45.378Z,28.50
2022-08-20T17:03:21.200Z,28.40
2022-08-20T17:06:00.805Z,28.30
2022-08-20T17:08:31.758Z,28.20
2022-08-20T17:11:00.600Z,28.20
2022-08-20T17:13:42.871Z,28.10
2022-08-20T17:16:15.580Z,28.10
2022-08-20T17:18:45.005Z,28.00
2022-08-20T17:21:11.695Z,27.90
2022-08-20T17:23:55.603Z,27.90
2022-08-20T17:26:26.526Z,27.80
2022-08-20T17:29:00.120Z,27.70
2022-08-20T17:31:38.727Z,27.70
2022-08-20T17:34:12.516Z,27.60
2022-08-20T17:36:49.650Z,27.50
2022-08-20T17:39:19.080Z,27.50
2022-08-20T17:41:54.447Z,27.50
2022-08-20T17:44:25.732Z,27.40
2022-08-20T17:46:53.832Z,27.40
2022-08-20T17:49:57.310Z,27.40
2022-08-20T17:52:43.718Z,27.30
2022-08-20T17:55:12.186Z,27.30
2022-08-20T17:57:42.687Z,27.20
2022-08-20T18:00:23.324Z,27.20
2022-08-20T18:03:14.995Z,27.20
2022-08-20T18:05:43.424Z,27.10
2022-08-20T18:08:30.940Z,27.00
2022-08-20T18:11:26.622Z,26.90
2022-08-20T18:14:12.867Z,26.90
2022-08-20T18:16:55.025Z,26.90
2022-08-20T18:19:30.606Z,26.80
2022-08-20T18:22:09.840Z,26.80
2022-08-20T18:24:40.249Z,26.70
2022-08-20T18:27:14.846Z,26.70
2022-08-20T18:29:46.662Z,26.70
2022-08-20T18:32:33.961Z,26.70
2022-08-20T18:35:08.632Z,26.60
2022-08-20T18:37:35.921Z,26.60
2022-08-20T18:40:31.141Z,26.50
2022-08-20T18:43:10.629Z,26.40
2022-08-20T18:45:37.370Z,26.30
2022-08-20T18:48:05.277Z,26.20
2022-08-20T18:50:41.173Z,26.00
2022-08-20T18:53:16.884Z,26.20
2022-08-20T18:56:01.912Z,26.10
2022-08-20T18:58:32.683Z,26.10
2022-08-20T19:01:01.837Z,26.00
2022-08-20T19:03:38.446Z,26.00
2022-08-20T19:06:31.167Z,25.90
2022-08-20T19:12:20.652Z,25.90
2022-08-20T19:14:55.854Z,25.80
2022-08-20T19:17:56.332Z,25.80
2022-08-20T19:20:30.038Z,25.70
2022-08-20T19:23:04.659Z,25.70
2022-08-20T19:25:35.822Z,25.60
2022-08-20T19:28:39.821Z,25.60
2022-08-20T19:31:16.701Z,25.60
2022-08-20T19:33:47.204Z,25.50
2022-08-20T19:36:28.114Z,25.50
2022-08-20T19:38:59.581Z,25.40
2022-08-20T19:41:39.237Z,25.30
2022-08-20T19:44:05.947Z,25.30
2022-08-20T19:46:45.125Z,25.20
2022-08-20T19:49:29.052Z,25.10
2022-08-20T19:52:21.370Z,25.10
2022-08-20T19:54:51.991Z,25.10
2022-08-20T19:57:20.215Z,25.00
2022-08-20T20:00:07.472Z,25.00
2022-08-20T20:02:34.883Z,25.00
2022-08-20T20:05:06.377Z,24.90
2022-08-20T20:07:44.370Z,24.90
2022-08-20T20:10:22.307Z,24.90
2022-08-20T20:12:49.026Z,24.80
2022-08-20T20:15:16.518Z,24.70
2022-08-20T20:17:43.903Z,24.70
2022-08-20T20:20:28.372Z,24.70
2022-08-20T20:23:01.979Z,24.70
2022-08-20T20:25:33.890Z,24.60
2022-08-20T20:28:22.635Z,24.60
2022-08-20T20:30:49.774Z,24.60
2022-08-20T20:33:44.299Z,24.60
2022-08-20T20:36:15.915Z,24.50
2022-08-20T20:38:58.415Z,24.50
2022-08-20T20:41:28.781Z,24.50
2022-08-20T20:44:19.853Z,24.50
2022-08-20T20:46:49.529Z,24.40
2022-08-20T20:49:24.275Z,24.30
2022-08-20T20:52:23.056Z,24.30
2022-08-20T20:54:50.725Z,24.20
2022-08-20T20:57:32.658Z,24.10
2022-08-20T21:00:14.151Z,24.00
2022-08-20T21:02:41.388Z,24.00
2022-08-20T21:05:08.537Z,24.10
2022-08-20T21:07:44.127Z,24.00
2022-08-20T21:10:10.838Z,24.00
2022-08-20T21:12:37.511Z,23.90
2022-08-20T21:15:04.663Z,23.90
2022-08-20T21:17:31.476Z,23.80
2022-08-20T21:20:00.869Z,23.80
2022-08-20T21:22:27.674Z,23.80
2022-08-20T21:24:54.453Z,23.70
2022-08-20T21:27:24.592Z,23.60
2022-08-20T21:29:52.559Z,23.60
2022-08-20T21:32:19.884Z,23.50
2022-08-20T21:34:47.347Z,23.50
2022-08-20T21:37:15.074Z,23.40
2022-08-20T21:39:42.089Z,23.40
2022-08-20T21:42:28.695Z,23.40
2022-08-20T21:44:57.392Z,23.40
2022-08-20T21:47:24.182Z,23.40
2022-08-20T21:49:50.838Z,23.30
2022-08-20T21:52:18.684Z,23.30
2022-08-20T21:54:45.432Z,23.30
2022-08-20T21:57:24.964Z,23.30
2022-08-20T21:59:52.326Z,23.30
2022-08-20T22:02:19.674Z,23.20
2022-08-20T22:04:46.409Z,23.10
2022-08-20T22:07:13.296Z,23.10
2022-08-20T22:09:40.023Z,23.10
2022-08-20T22:12:20.576Z,23.10
2022-08-20T22:14:47.633Z,23.10
2022-08-20T22:17:15.112Z,23.10
2022-08-20T22:19:41.959Z,23.00
2022-08-20T22:22:10.787Z,23.00
2022-08-20T22:24:37.822Z,23.00
2022-08-20T22:27:06.040Z,22.90
2022-08-20T22:29:32.922Z,22.90
2022-08-20T22:32:00.835Z,22.80
2022-08-20T22:34:31.092Z,22.80
2022-08-20T22:36:59.521Z,22.80
2022-08-20T22:39:26.300Z,22.80
2022-08-20T22:41:53.201Z,22.70
2022-08-20T22:44:20.400Z,22.70
2022-08-20T22:46:51.523Z,22.70
2022-08-20T22:49:23.678Z,22.60
2022-08-20T22:51:50.517Z,22.60
2022-08-20T22:54:22.077Z,22.60
2022-08-20T22:56:49.637Z,22.50
2022-08-20T22:59:18.547Z,22.50
2022-08-20T23:01:46.285Z,22.40
2022-08-20T23:04:21.665Z,22.40
2022-08-20T23:06:48.557Z,22.40
2022-08-20T23:09:15.337Z,22.40
2022-08-20T23:11:48.387Z,22.30
2022-08-20T23:14:15.058Z,22.30
2022-08-20T23:16:46.138Z,22.30
2022-08-20T23:19:18.441Z,22.30
2022-08-20T23:21:45.117Z,22.30
2022-08-20T23:24:14.197Z,22.20
2022-08-20T23:26:41.592Z,22.20
2022-08-20T23:29:22.534Z,22.30
2022-08-20T23:31:54.005Z,22.20
2022-08-20T23:34:20.698Z,22.20
2022-08-20T23:36:47.901Z,22.20
2022-08-20T23:39:14.560Z,22.20
2022-08-20T23:41:47.649Z,22.20
2022-08-20T23:44:26.226Z,22.10
2022-08-20T23:46:55.802Z,22.10
2022-08-20T23:49:22.552Z,22.10
2022-08-20T23:51:49.239Z,22.10
2022-08-20T23:54:16.045Z,22.10
2022-08-20T23:56:42.743Z,22.20
2022-08-20T23:59:09.467Z,22.20
